Главная страница
METAR-TAF:

METAR-TAF

Аэропорты :

Belmar / Farmingdale, Нью-Джерси, США

широта: 40-11N, долгота: 074-08W, высота над уровнем моря: 48 м

Текущие метеонаблюдения

Эта сводка был подготовлена 14 минут назад, в 13:56 UTC
Ветер 10 Узел от восточно-юго-восточный
Температура 13°C
Влажность 94%
Давление 1005 hPa
Видимость: 14.5 км
Сплошная облачность на высоте 400 фута

METAR: KBLM 261356Z AUTO 11010KT 9SM OVC004 13/12 A2969 RMK AO2 SLP059 T01280117

Время: 10:10 (14:10 UTC)


TAF: отсутствует

Метеонаблюдения и прогнозы для более 4000 аэропортов (сводки METAR и TAF).

Имеющиеся станции представлены на карте желтыми и красными точками.

Чтобы увидеть название станции, наведите на нее мышь.

Затем щелкните, чтобы увидеть метеонаблюдения и метеопрогнозы.

Управление картой: чтобы увеличить масштаб, щелкните зеленые кнопки с черным крестиком; чтобы уменьшить масштаб, щелкните зеленую кнопку с тире; для просмотра соседних карт щелкайте зеленые стрелки.


METAR-TAF: